createdAt,value
2022-12-05T00:00:51.692Z,0.10
2022-12-05T00:03:18.994Z,0.10
2022-12-05T00:05:45.413Z,0.10
2022-12-05T00:08:12.022Z,0.20
2022-12-05T00:10:39.708Z,0.20
2022-12-05T00:13:06.377Z,0.20
2022-12-05T00:15:37.421Z,0.10
2022-12-05T00:18:04.322Z,0.20
2022-12-05T00:20:30.753Z,0.30
2022-12-05T00:22:57.281Z,0.30
2022-12-05T00:25:23.685Z,0.30
2022-12-05T00:27:50.092Z,0.23
2022-12-05T00:30:16.553Z,0.50
2022-12-05T00:32:43.025Z,0.30
2022-12-05T00:35:09.524Z,0.43
2022-12-05T00:37:36.416Z,0.30
2022-12-05T00:40:03.101Z,0.40
2022-12-05T00:42:29.509Z,0.20
2022-12-05T00:44:55.900Z,0.27
2022-12-05T00:47:22.293Z,0.30
2022-12-05T00:49:48.721Z,0.30
2022-12-05T00:52:15.091Z,0.43
2022-12-05T00:54:41.469Z,0.30
2022-12-05T00:57:07.946Z,0.40
2022-12-05T00:59:34.308Z,0.30
2022-12-05T01:02:00.702Z,0.37
2022-12-05T01:04:27.377Z,0.30
2022-12-05T01:06:55.918Z,0.30
2022-12-05T01:09:22.600Z,0.30
2022-12-05T01:11:49.782Z,0.40
2022-12-05T01:14:19.006Z,0.40
2022-12-05T01:16:48.123Z,0.40
2022-12-05T01:19:18.172Z,0.37
2022-12-05T01:21:44.790Z,0.43
2022-12-05T01:24:12.325Z,0.50
2022-12-05T01:26:40.695Z,0.70
2022-12-05T01:29:07.289Z,0.47
2022-12-05T01:31:36.208Z,0.40
2022-12-05T01:34:07.689Z,0.30
2022-12-05T01:36:34.110Z,0.40
2022-12-05T01:39:00.760Z,0.73
2022-12-05T01:41:29.500Z,0.30
2022-12-05T01:44:27.551Z,0.43
2022-12-05T01:46:55.405Z,0.23
2022-12-05T01:49:32.803Z,0.30
2022-12-05T01:52:04.304Z,0.50
2022-12-05T01:54:30.840Z,0.40
2022-12-05T01:57:01.293Z,0.40
2022-12-05T01:59:31.350Z,0.30
2022-12-05T02:01:58.286Z,0.47
2022-12-05T02:04:24.704Z,0.30
2022-12-05T02:06:51.781Z,0.70
2022-12-05T02:09:18.227Z,0.30
2022-12-05T02:11:55.668Z,0.30
2022-12-05T02:14:38.282Z,0.20
2022-12-05T02:17:23.493Z,0.23
2022-12-05T02:20:00.231Z,0.50
2022-12-05T02:23:03.869Z,0.30
2022-12-05T02:25:52.036Z,0.43
2022-12-05T02:28:36.755Z,0.50
2022-12-05T02:31:22.729Z,0.50
2022-12-05T02:33:53.280Z,0.50
2022-12-05T02:36:35.124Z,0.30
2022-12-05T02:39:20.946Z,0.40
2022-12-05T02:42:08.526Z,0.40
2022-12-05T02:44:47.837Z,0.30
2022-12-05T02:47:18.887Z,0.20
2022-12-05T02:49:45.368Z,0.30
2022-12-05T02:52:15.153Z,0.43
2022-12-05T02:54:44.319Z,0.40
2022-12-05T02:57:13.254Z,0.40
2022-12-05T02:59:39.923Z,0.30
2022-12-05T03:02:09.175Z,0.50
2022-12-05T03:04:35.792Z,0.40
2022-12-05T03:07:11.275Z,0.30
2022-12-05T03:09:43.680Z,0.30
2022-12-05T03:12:16.229Z,0.23
2022-12-05T03:14:47.165Z,0.30
2022-12-05T03:17:20.117Z,0.40
2022-12-05T03:20:03.030Z,0.40
2022-12-05T03:22:40.884Z,0.33
2022-12-05T03:25:09.302Z,0.30
2022-12-05T03:28:01.645Z,0.30
2022-12-05T03:30:29.512Z,0.40
2022-12-05T03:33:05.699Z,0.40
2022-12-05T03:35:40.964Z,0.40
2022-12-05T03:38:16.141Z,0.30
2022-12-05T03:41:01.037Z,0.40
2022-12-05T03:43:57.778Z,0.33
2022-12-05T03:46:29.872Z,0.33
2022-12-05T03:49:04.870Z,0.20
2022-12-05T03:51:36.043Z,0.30
2022-12-05T03:54:08.403Z,0.40
2022-12-05T03:56:42.523Z,0.30
2022-12-05T03:59:18.428Z,0.37
2022-12-05T04:01:48.747Z,0.40
2022-12-05T04:04:23.227Z,0.30
2022-12-05T04:06:53.613Z,0.30
2022-12-05T04:09:28.794Z,0.40
2022-12-05T04:11:59.950Z,0.20
2022-12-05T04:14:37.323Z,0.20
2022-12-05T04:17:20.124Z,0.30
2022-12-05T04:20:14.007Z,0.20
2022-12-05T04:22:41.359Z,0.23
2022-12-05T04:25:29.528Z,0.83
2022-12-05T04:28:23.992Z,0.30
2022-12-05T04:31:03.716Z,0.30
2022-12-05T04:33:44.812Z,0.20
2022-12-05T04:36:20.291Z,0.23
2022-12-05T04:38:53.639Z,0.20
2022-12-05T04:41:28.944Z,0.20
2022-12-05T04:43:59.257Z,0.20
2022-12-05T04:46:25.740Z,0.43
2022-12-05T04:49:00.736Z,0.30
2022-12-05T04:51:31.365Z,0.77
2022-12-05T04:54:04.642Z,0.60
2022-12-05T04:56:35.480Z,0.93
2022-12-05T04:59:02.206Z,0.40
2022-12-05T05:01:41.778Z,0.73
2022-12-05T05:04:27.331Z,0.40
2022-12-05T05:06:53.857Z,0.30
2022-12-05T05:09:20.220Z,0.30
2022-12-05T05:11:46.915Z,0.50
2022-12-05T05:14:13.303Z,0.40
2022-12-05T05:16:41.875Z,0.50
2022-12-05T05:19:10.528Z,0.50
2022-12-05T05:21:41.986Z,0.70
2022-12-05T05:24:10.445Z,0.40
2022-12-05T05:26:40.500Z,0.40
2022-12-05T05:29:07.352Z,0.30
2022-12-05T05:31:34.003Z,0.30
2022-12-05T05:34:04.575Z,0.33
2022-12-05T05:36:35.492Z,0.37
2022-12-05T05:39:03.709Z,0.30
2022-12-05T05:41:35.684Z,0.40
2022-12-05T05:44:03.185Z,0.23
2022-12-05T05:46:32.186Z,0.60
2022-12-05T05:48:58.897Z,0.43
2022-12-05T05:51:27.941Z,0.40
2022-12-05T05:53:54.538Z,0.40
2022-12-05T05:56:22.293Z,0.70
2022-12-05T05:58:55.105Z,0.57
2022-12-05T06:01:22.004Z,0.90
2022-12-05T06:03:50.578Z,0.40
2022-12-05T06:06:17.843Z,0.50
2022-12-05T06:08:45.454Z,0.60
2022-12-05T06:11:16.078Z,0.60
2022-12-05T06:13:44.249Z,0.60
2022-12-05T06:16:14.580Z,0.87
2022-12-05T06:18:41.738Z,1.77
2022-12-05T06:21:13.159Z,1.60
2022-12-05T06:23:42.437Z,0.93
2022-12-05T06:26:14.409Z,0.93
2022-12-05T06:28:41.311Z,0.63
2022-12-05T06:31:22.885Z,0.83
2022-12-05T06:33:49.843Z,0.60
2022-12-05T06:36:20.948Z,0.53
2022-12-05T06:38:47.663Z,0.40
2022-12-05T06:41:16.595Z,0.30
2022-12-05T06:43:43.664Z,0.40
2022-12-05T06:46:12.580Z,0.50
2022-12-05T06:48:39.545Z,0.30
2022-12-05T06:51:12.776Z,0.60
2022-12-05T06:53:39.943Z,0.70
2022-12-05T06:56:08.187Z,0.47
2022-12-05T06:58:34.565Z,1.23
2022-12-05T07:01:19.659Z,0.60
2022-12-05T07:03:48.970Z,0.50
2022-12-05T07:06:16.714Z,0.90
2022-12-05T07:08:43.712Z,0.40
2022-12-05T07:11:10.189Z,0.83
2022-12-05T07:13:36.781Z,0.57
2022-12-05T07:16:04.384Z,1.27
2022-12-05T07:18:30.905Z,2.50
2022-12-05T07:21:13.102Z,0.90
2022-12-05T07:23:41.487Z,1.00
2022-12-05T07:26:09.682Z,0.87
2022-12-05T07:28:36.461Z,2.33
2022-12-05T07:31:05.218Z,0.60
2022-12-05T07:33:34.516Z,1.77
2022-12-05T07:36:07.822Z,1.40
2022-12-05T07:38:34.206Z,1.30
2022-12-05T07:41:08.951Z,1.30
2022-12-05T07:43:38.098Z,0.67
2022-12-05T07:46:06.413Z,0.50
2022-12-05T07:48:33.722Z,0.63
2022-12-05T07:51:04.998Z,0.87
2022-12-05T07:53:32.404Z,0.30
2022-12-05T07:56:00.716Z,0.47
2022-12-05T07:58:29.344Z,0.80
2022-12-05T08:00:56.943Z,0.50
2022-12-05T08:03:23.605Z,1.03
2022-12-05T08:05:50.061Z,0.50
2022-12-05T08:08:19.003Z,0.57
2022-12-05T08:10:45.497Z,0.17
2022-12-05T08:13:14.631Z,0.10
2022-12-05T08:15:41.054Z,0.10
2022-12-05T08:18:07.463Z,0.10
2022-12-05T08:20:33.832Z,0.03
2022-12-05T08:23:03.592Z,0.10
2022-12-05T08:25:30.568Z,0.13
2022-12-05T08:28:16.174Z,0.00
2022-12-05T08:30:42.731Z,0.00
2022-12-05T08:33:09.177Z,0.00
2022-12-05T08:35:37.530Z,0.00
2022-12-05T08:38:03.961Z,0.00
2022-12-05T08:40:31.308Z,0.00
2022-12-05T08:42:58.087Z,0.00
2022-12-05T08:45:24.505Z,0.00
2022-12-05T08:47:50.873Z,0.10
2022-12-05T08:50:17.502Z,0.10
2022-12-05T08:52:43.929Z,0.13
2022-12-05T08:55:10.331Z,0.10
2022-12-05T08:57:36.721Z,0.10
2022-12-05T09:00:05.931Z,0.20
2022-12-05T09:02:32.556Z,0.20
2022-12-05T09:05:09.065Z,0.10
2022-12-05T09:07:45.594Z,0.07
2022-12-05T09:10:12.017Z,0.30
2022-12-05T09:12:41.574Z,0.27
2022-12-05T09:15:09.686Z,0.20
2022-12-05T09:17:36.532Z,0.20
2022-12-05T09:20:04.104Z,0.20
2022-12-05T09:22:30.566Z,0.23
2022-12-05T09:24:57.181Z,0.30
2022-12-05T09:27:23.749Z,0.40
2022-12-05T09:29:50.109Z,0.30
2022-12-05T09:32:16.574Z,0.40
2022-12-05T09:34:43.103Z,0.33
2022-12-05T09:37:30.937Z,0.30
2022-12-05T09:39:55.843Z,0.43
2022-12-05T09:42:46.822Z,0.20
2022-12-05T09:45:34.466Z,0.17
2022-12-05T09:48:11.483Z,0.17
2022-12-05T09:50:52.614Z,0.20
2022-12-05T09:53:35.683Z,0.33
2022-12-05T09:56:12.396Z,0.10
2022-12-05T09:58:50.216Z,0.17
2022-12-05T10:01:39.086Z,0.30
2022-12-05T10:04:18.762Z,0.30
2022-12-05T10:07:10.258Z,0.27
2022-12-05T10:09:51.812Z,0.40
2022-12-05T10:12:33.369Z,0.30
2022-12-05T10:15:03.525Z,0.70
2022-12-05T10:17:35.906Z,0.40
2022-12-05T10:20:17.092Z,0.30
2022-12-05T10:22:47.843Z,0.20
2022-12-05T10:25:19.415Z,0.30
2022-12-05T13:33:57.317Z,0.57
2022-12-05T13:36:42.860Z,0.30
2022-12-05T13:39:33.837Z,0.30
2022-12-05T13:42:13.006Z,0.37
2022-12-05T13:44:54.573Z,0.23
2022-12-05T13:47:26.640Z,0.50
2022-12-05T13:49:58.914Z,0.50
2022-12-05T13:52:30.625Z,0.40
2022-12-05T13:55:02.274Z,0.50
2022-12-05T13:57:37.796Z,0.30
2022-12-05T14:00:19.852Z,0.20
2022-12-05T14:02:48.721Z,0.50
2022-12-05T14:05:15.117Z,0.40
2022-12-05T14:07:46.007Z,0.40
2022-12-05T14:10:18.301Z,0.30
2022-12-05T14:12:47.731Z,0.77
2022-12-05T14:15:42.672Z,0.30
2022-12-05T14:18:34.001Z,0.40
2022-12-05T14:21:05.306Z,0.50
2022-12-05T14:23:44.364Z,0.40
2022-12-05T14:26:35.118Z,0.50
2022-12-05T14:29:35.402Z,0.43
2022-12-05T14:32:17.426Z,0.83
2022-12-05T14:35:11.974Z,1.60
2022-12-05T14:37:49.732Z,0.70
2022-12-05T14:40:47.248Z,0.80
2022-12-05T14:43:32.756Z,0.43
2022-12-05T14:46:06.324Z,0.67
2022-12-05T14:48:47.342Z,0.93
2022-12-05T14:51:44.587Z,0.40
2022-12-05T14:54:17.732Z,0.50
2022-12-05T14:56:47.873Z,0.50
2022-12-05T14:59:32.861Z,0.30
2022-12-05T15:02:02.468Z,0.83
2022-12-05T15:04:50.210Z,1.00
2022-12-05T15:07:26.024Z,1.10
2022-12-05T15:09:59.907Z,1.00
2022-12-05T15:12:43.670Z,0.60
2022-12-05T15:15:44.745Z,0.43
2022-12-05T15:18:42.708Z,0.80
2022-12-05T15:21:19.069Z,0.40
2022-12-05T15:23:55.690Z,0.40
2022-12-05T15:26:48.101Z,1.10
2022-12-05T15:29:23.025Z,0.60
2022-12-05T15:31:53.578Z,0.90
2022-12-05T15:34:33.794Z,0.97
2022-12-05T15:37:17.761Z,1.80
2022-12-05T15:39:54.774Z,3.57
2022-12-05T15:42:27.682Z,2.57
2022-12-05T15:45:14.714Z,4.90
2022-12-05T15:47:42.952Z,6.27
2022-12-05T15:50:14.223Z,3.03
2022-12-05T15:52:46.976Z,3.97
2022-12-05T15:55:38.736Z,1.93
2022-12-05T15:58:19.510Z,4.77
2022-12-05T16:00:50.659Z,3.00
2022-12-05T16:03:38.945Z,3.43
2022-12-05T16:06:14.545Z,4.83
2022-12-05T16:08:46.333Z,6.77
2022-12-05T16:11:14.754Z,6.23
2022-12-05T16:13:47.978Z,5.43
2022-12-05T16:16:24.336Z,5.23
2022-12-05T16:19:13.913Z,5.07
2022-12-05T16:22:06.244Z,6.50
2022-12-05T16:24:39.879Z,6.10
2022-12-05T16:27:24.966Z,2.00
2022-12-05T16:30:31.534Z,2.40
2022-12-05T16:33:19.664Z,2.30
2022-12-05T16:35:47.256Z,2.37
2022-12-05T16:38:16.778Z,1.67
2022-12-05T16:40:46.197Z,2.37
2022-12-05T16:43:24.301Z,2.47
2022-12-05T16:45:52.900Z,2.80
2022-12-05T16:48:30.207Z,1.53
2022-12-05T16:51:25.780Z,3.63
2022-12-05T16:53:55.961Z,2.20
2022-12-05T16:56:32.399Z,1.47
2022-12-05T16:59:03.017Z,2.60
2022-12-05T17:01:33.178Z,3.40
2022-12-05T17:04:02.164Z,2.77
2022-12-05T17:06:28.598Z,4.47
2022-12-05T17:08:55.235Z,3.50
2022-12-05T17:11:41.532Z,3.67
2022-12-05T17:14:13.803Z,2.37
2022-12-05T17:16:58.142Z,4.33
2022-12-05T17:26:52.293Z,1.83
2022-12-05T17:29:18.732Z,2.80
2022-12-05T17:31:45.190Z,1.47
2022-12-05T17:34:17.153Z,1.07
2022-12-05T17:36:44.601Z,2.03
2022-12-05T17:39:11.022Z,0.93
2022-12-05T17:41:37.896Z,1.60
2022-12-05T17:44:05.142Z,1.70
2022-12-05T17:46:32.131Z,2.13
2022-12-05T17:48:58.621Z,2.17
2022-12-05T17:51:25.543Z,1.63
2022-12-05T17:53:53.004Z,2.03
2022-12-05T17:56:19.505Z,2.10
2022-12-05T17:58:46.736Z,0.70
2022-12-05T18:01:15.513Z,1.27
2022-12-05T18:03:42.435Z,2.23
2022-12-05T18:06:08.949Z,1.00
2022-12-05T18:08:39.517Z,2.40
2022-12-05T18:11:06.251Z,1.43
2022-12-05T18:13:33.029Z,2.87
2022-12-05T18:15:59.732Z,1.43
2022-12-05T18:18:28.555Z,3.10
2022-12-05T18:21:10.220Z,3.50
2022-12-05T18:23:37.811Z,1.87
2022-12-05T18:26:05.953Z,1.23
2022-12-05T18:28:36.235Z,1.83
2022-12-05T18:31:12.127Z,1.80
2022-12-05T18:33:39.441Z,1.60
2022-12-05T18:36:08.240Z,2.43
2022-12-05T18:38:35.830Z,2.00
2022-12-05T18:41:03.962Z,1.87
2022-12-05T18:43:30.752Z,1.60
2022-12-05T18:45:58.652Z,3.53
2022-12-05T18:48:38.746Z,5.83
2022-12-05T18:51:18.056Z,1.10
2022-12-05T18:53:51.886Z,1.60
2022-12-05T18:56:23.748Z,2.80
2022-12-05T18:58:59.574Z,1.93
2022-12-05T19:01:27.422Z,5.00
2022-12-05T19:03:54.420Z,2.03
2022-12-05T19:06:24.139Z,1.97
2022-12-05T19:08:54.089Z,1.70
2022-12-05T19:11:20.856Z,3.57
2022-12-05T19:13:47.556Z,2.70
2022-12-05T19:16:16.775Z,3.10
2022-12-05T19:18:43.544Z,2.27
2022-12-05T19:21:10.289Z,1.87
2022-12-05T19:23:36.749Z,2.40
2022-12-05T19:26:05.848Z,3.30
2022-12-05T19:28:34.077Z,4.37
2022-12-05T19:31:03.469Z,3.60
2022-12-05T19:33:31.697Z,3.17
2022-12-05T19:36:03.117Z,3.77
2022-12-05T19:38:34.905Z,3.63
2022-12-05T19:41:03.144Z,3.50
2022-12-05T19:43:30.820Z,2.13
2022-12-05T19:45:58.018Z,3.17
2022-12-05T19:48:25.105Z,2.33
2022-12-05T19:50:59.752Z,3.53
2022-12-05T19:53:29.488Z,2.17
2022-12-05T19:56:08.709Z,3.63
2022-12-05T19:58:36.555Z,5.43
2022-12-05T20:01:21.426Z,1.97
2022-12-05T20:03:55.993Z,2.10
2022-12-05T20:06:23.206Z,2.37
2022-12-05T20:08:52.388Z,2.93
2022-12-05T20:11:21.315Z,2.77
2022-12-05T20:13:48.518Z,2.00
2022-12-05T20:16:18.319Z,1.43
2022-12-05T20:18:45.652Z,2.50
2022-12-05T20:21:13.676Z,0.80
2022-12-05T20:23:40.131Z,0.50
2022-12-05T20:26:07.867Z,1.17
2022-12-05T20:28:34.838Z,1.37
2022-12-05T20:31:08.220Z,0.93
2022-12-05T20:33:35.303Z,0.60
2022-12-05T20:36:07.550Z,1.53
2022-12-05T20:38:34.229Z,0.70
2022-12-05T20:41:04.117Z,0.70
2022-12-05T20:43:30.712Z,0.97
2022-12-05T20:46:15.921Z,2.77
2022-12-05T20:48:43.110Z,5.40
2022-12-05T20:51:15.543Z,6.70
2022-12-05T20:53:43.561Z,5.00
2022-12-05T20:56:18.950Z,3.50
2022-12-05T20:58:47.858Z,8.93
2022-12-05T21:01:15.508Z,5.30
2022-12-05T21:03:47.277Z,5.73
2022-12-05T21:06:16.537Z,13.27
2022-12-05T21:08:43.583Z,10.07
2022-12-05T21:11:10.839Z,15.73
2022-12-05T21:13:37.828Z,19.70
2022-12-05T21:16:10.696Z,9.10
2022-12-05T21:18:37.938Z,15.93
2022-12-05T21:21:07.236Z,13.03
2022-12-05T21:23:34.270Z,18.17
2022-12-05T21:26:03.811Z,9.90
2022-12-05T21:28:31.602Z,25.47
2022-12-05T21:31:18.771Z,22.17
2022-12-05T21:33:54.080Z,8.73
2022-12-05T21:36:20.861Z,20.83
2022-12-05T21:38:50.917Z,22.10
2022-12-05T21:41:20.601Z,16.23
2022-12-05T21:43:52.457Z,19.00
2022-12-05T21:46:20.807Z,21.13
2022-12-05T21:48:47.241Z,33.17
2022-12-05T21:51:13.679Z,14.40
2022-12-05T21:53:40.081Z,18.30
2022-12-05T21:56:10.770Z,7.17
2022-12-05T21:58:42.089Z,6.67
2022-12-05T22:01:10.672Z,7.90
2022-12-05T22:03:37.149Z,5.77
2022-12-05T22:06:09.230Z,7.40
2022-12-05T22:08:35.638Z,6.40
2022-12-05T22:11:10.440Z,6.40
2022-12-05T22:13:37.285Z,4.17
2022-12-05T22:16:04.907Z,6.83
2022-12-05T22:18:31.700Z,10.30
2022-12-05T22:21:04.264Z,5.37
2022-12-05T22:23:32.937Z,8.47
2022-12-05T22:26:08.200Z,6.50
2022-12-05T22:28:35.897Z,9.07
2022-12-05T22:31:05.217Z,7.87
2022-12-05T22:33:31.977Z,6.80
2022-12-05T22:36:00.502Z,6.57
2022-12-05T22:38:35.211Z,9.27
2022-12-05T22:41:04.371Z,9.00
2022-12-05T22:43:32.198Z,7.83
2022-12-05T22:46:05.332Z,5.13
2022-12-05T22:48:31.736Z,9.27
2022-12-05T22:50:58.624Z,8.20
2022-12-05T22:53:25.060Z,8.03
2022-12-05T22:55:51.578Z,9.40
2022-12-05T22:58:18.528Z,10.47
2022-12-05T23:00:46.229Z,8.07
2022-12-05T23:03:12.944Z,7.70
2022-12-05T23:05:41.349Z,7.23
2022-12-05T23:08:08.338Z,11.77
2022-12-05T23:10:34.811Z,7.00
2022-12-05T23:13:01.224Z,8.23
2022-12-05T23:15:27.667Z,8.33
2022-12-05T23:17:54.315Z,8.17
2022-12-05T23:20:20.750Z,7.77
2022-12-05T23:22:47.144Z,7.07
2022-12-05T23:25:13.535Z,4.07
2022-12-05T23:27:39.969Z,7.10
2022-12-05T23:30:07.105Z,7.37
2022-12-05T23:32:33.505Z,10.40
2022-12-05T23:34:59.932Z,5.83
2022-12-05T23:37:26.361Z,7.70
2022-12-05T23:39:52.783Z,11.23
2022-12-05T23:42:19.163Z,7.23
2022-12-05T23:44:46.062Z,11.30
2022-12-05T23:47:12.904Z,11.90
2022-12-05T23:49:39.434Z,6.90
2022-12-05T23:52:05.830Z,7.67
2022-12-05T23:54:32.305Z,6.80
2022-12-05T23:56:58.737Z,7.00
2022-12-05T23:59:25.161Z,7.07
